createdAt,value
2018-01-31T01:53:02.291Z,75.60
2018-01-31T01:55:29.901Z,75.75
2018-01-31T01:57:57.872Z,75.59
2018-01-31T02:00:25.511Z,75.69
2018-01-31T02:02:53.103Z,75.80
2018-01-31T02:05:20.731Z,75.64
2018-01-31T02:07:48.366Z,75.93
2018-01-31T02:10:15.932Z,76.00
2018-01-31T02:12:43.497Z,76.13
2018-01-31T02:15:11.085Z,76.54
2018-01-31T02:17:38.735Z,76.78
2018-01-31T02:20:06.292Z,76.72
2018-01-31T02:22:33.918Z,76.82
2018-01-31T02:25:01.556Z,76.84
2018-01-31T02:27:29.110Z,76.59
2018-01-31T02:29:56.723Z,76.78
2018-01-31T02:32:24.292Z,76.46
2018-01-31T02:34:51.916Z,76.61
2018-01-31T02:37:19.488Z,76.81
2018-01-31T02:39:58.006Z,76.99
2018-01-31T02:42:25.662Z,76.78
2018-01-31T02:44:53.228Z,76.51
2018-01-31T02:47:21.131Z,76.58
2018-01-31T02:49:48.733Z,76.81
2018-01-31T02:52:16.333Z,76.90
2018-01-31T02:54:43.959Z,76.32
2018-01-31T02:57:11.892Z,76.35
2018-01-31T02:59:39.551Z,76.62
2018-01-31T03:02:07.150Z,76.62
2018-01-31T03:04:34.812Z,76.30
2018-01-31T03:07:02.392Z,76.57
2018-01-31T03:09:30.043Z,76.71
2018-01-31T03:11:57.612Z,77.06
2018-01-31T03:14:25.521Z,77.17
2018-01-31T03:16:53.086Z,77.47
2018-01-31T03:19:20.949Z,77.20
2018-01-31T03:21:48.522Z,77.36
2018-01-31T03:24:16.374Z,77.63
2018-01-31T03:26:43.960Z,77.44
2018-01-31T03:29:11.799Z,78.26
2018-01-31T03:31:39.375Z,78.24
2018-01-31T03:34:07.064Z,78.16
2018-01-31T03:36:34.648Z,78.07
2018-01-31T03:39:02.253Z,77.71
2018-01-31T03:41:29.859Z,77.38
2018-01-31T03:43:57.442Z,77.34
2018-01-31T03:46:25.078Z,77.75
2018-01-31T03:48:52.646Z,77.32
2018-01-31T03:51:20.402Z,77.50
2018-01-31T03:53:48.037Z,77.16
2018-01-31T03:56:15.663Z,77.23
2018-01-31T03:58:43.255Z,77.24
2018-01-31T04:01:11.125Z,77.50
2018-01-31T04:03:38.753Z,77.78
2018-01-31T04:06:06.324Z,78.61
2018-01-31T04:08:33.943Z,78.58
2018-01-31T04:11:01.583Z,78.83
2018-01-31T04:13:29.165Z,79.33
2018-01-31T04:15:56.749Z,80.09
2018-01-31T04:18:24.346Z,79.54
2018-01-31T04:20:52.235Z,79.02
2018-01-31T04:23:20.085Z,78.83
2018-01-31T04:25:47.715Z,78.84
2018-01-31T04:28:15.282Z,78.83
2018-01-31T04:30:42.900Z,78.81
2018-01-31T04:33:10.485Z,78.60
2018-01-31T04:35:38.206Z,78.12
2018-01-31T04:38:06.066Z,78.14
2018-01-31T04:40:33.627Z,78.24
2018-01-31T04:43:01.494Z,78.22
2018-01-31T04:45:29.357Z,78.10
2018-01-31T04:47:56.963Z,77.92
2018-01-31T04:50:24.583Z,77.76
2018-01-31T04:52:52.166Z,78.01
2018-01-31T04:55:20.018Z,78.18
2018-01-31T04:57:47.591Z,78.12
2018-01-31T05:00:15.209Z,77.96
2018-01-31T05:02:42.779Z,77.94
2018-01-31T05:05:10.490Z,78.09
2018-01-31T05:07:38.330Z,77.89
2018-01-31T05:10:05.906Z,77.78
2018-01-31T05:12:33.539Z,77.71
2018-01-31T05:15:01.149Z,77.99
2018-01-31T05:17:28.726Z,77.58
2018-01-31T05:19:56.463Z,78.26
2018-01-31T05:22:24.029Z,78.61
2018-01-31T05:24:51.614Z,78.38
2018-01-31T05:27:19.236Z,78.32
2018-01-31T05:29:46.816Z,78.76
2018-01-31T05:32:14.423Z,78.44
2018-01-31T05:34:41.995Z,79.07
2018-01-31T05:37:09.574Z,79.01
2018-01-31T05:39:37.444Z,79.07
2018-01-31T05:42:05.029Z,79.03
2018-01-31T05:44:32.637Z,79.23
2018-01-31T05:47:00.230Z,79.38
2018-01-31T05:49:27.847Z,79.35
2018-01-31T05:51:55.462Z,79.47
2018-01-31T05:54:23.315Z,79.46
2018-01-31T05:56:50.882Z,79.11
2018-01-31T05:59:18.464Z,78.82
2018-01-31T06:01:46.261Z,78.92
2018-01-31T06:04:13.849Z,79.19
2018-01-31T06:06:41.447Z,79.25
2018-01-31T06:09:09.013Z,79.44
2018-01-31T06:11:36.598Z,79.47
2018-01-31T06:14:04.172Z,79.18
2018-01-31T06:16:31.759Z,78.97
2018-01-31T06:18:59.322Z,79.00
2018-01-31T06:21:27.205Z,79.29
2018-01-31T06:23:54.744Z,79.44
2018-01-31T06:26:22.315Z,79.22
2018-01-31T06:28:49.885Z,79.16
2018-01-31T06:31:17.451Z,79.26
2018-01-31T06:33:45.031Z,79.03
2018-01-31T06:36:12.613Z,79.04
2018-01-31T06:38:40.192Z,79.19
2018-01-31T06:41:07.882Z,79.01
2018-01-31T06:43:35.475Z,78.98
2018-01-31T06:46:03.089Z,78.83
2018-01-31T06:48:30.985Z,78.67
2018-01-31T06:50:58.634Z,79.03
2018-01-31T06:53:26.237Z,79.18
2018-01-31T06:55:53.806Z,79.59
2018-01-31T06:58:21.639Z,79.65
2018-01-31T07:00:49.236Z,79.41
2018-01-31T07:03:17.161Z,79.06
2018-01-31T07:05:44.839Z,79.24
2018-01-31T07:08:12.696Z,78.98
2018-01-31T07:10:40.282Z,78.84
2018-01-31T07:13:07.868Z,78.87
2018-01-31T07:15:35.468Z,79.11
2018-01-31T07:18:03.006Z,79.61
2018-01-31T07:20:30.594Z,80.24
2018-01-31T07:22:58.161Z,80.18
2018-01-31T07:25:25.740Z,80.45
2018-01-31T07:27:53.396Z,80.63
2018-01-31T07:30:21.109Z,80.37
2018-01-31T07:32:48.717Z,80.21
2018-01-31T07:35:16.306Z,79.85
2018-01-31T07:37:43.930Z,79.75
2018-01-31T07:40:11.806Z,79.71
2018-01-31T07:42:39.353Z,79.40
2018-01-31T07:45:06.892Z,79.41
2018-01-31T07:47:34.450Z,79.64
2018-01-31T07:50:02.011Z,79.89
2018-01-31T07:52:29.532Z,79.96
2018-01-31T07:54:57.090Z,80.37
2018-01-31T07:57:24.601Z,80.09
2018-01-31T07:59:52.188Z,80.21
2018-01-31T08:02:19.769Z,80.22
2018-01-31T08:04:47.337Z,79.94
2018-01-31T08:07:15.989Z,80.58
2018-01-31T08:09:43.692Z,80.73
2018-01-31T08:12:11.392Z,80.87
2018-01-31T08:14:38.998Z,80.80
2018-01-31T08:17:06.553Z,80.82
2018-01-31T08:19:34.184Z,81.03
2018-01-31T08:22:01.723Z,81.35
2018-01-31T08:24:29.305Z,82.19
2018-01-31T08:26:56.856Z,82.24
2018-01-31T08:29:24.654Z,82.56
2018-01-31T08:31:52.221Z,83.38
2018-01-31T08:34:20.653Z,83.32
2018-01-31T08:36:48.217Z,83.46
2018-01-31T08:39:15.758Z,83.66
2018-01-31T08:41:43.341Z,83.80
2018-01-31T08:44:11.139Z,83.67
2018-01-31T08:46:38.700Z,83.41
2018-01-31T08:49:06.337Z,83.85
2018-01-31T08:51:34.472Z,84.50
2018-01-31T08:54:02.634Z,84.80
2018-01-31T08:56:30.176Z,85.87
2018-01-31T08:58:57.794Z,86.38
2018-01-31T09:01:25.325Z,86.30
2018-01-31T09:03:53.160Z,86.62
2018-01-31T09:06:20.687Z,86.41
2018-01-31T09:08:48.235Z,86.60
2018-01-31T09:11:16.147Z,86.69
2018-01-31T09:13:44.019Z,87.07
2018-01-31T09:16:11.538Z,87.10
2018-01-31T09:18:39.294Z,87.53
2018-01-31T09:21:06.859Z,87.83
2018-01-31T09:23:34.431Z,88.84
2018-01-31T09:26:01.978Z,89.08
2018-01-31T09:28:29.794Z,90.37
2018-01-31T09:30:57.434Z,90.96
2018-01-31T09:33:25.296Z,91.04
2018-01-31T09:35:52.839Z,91.13
2018-01-31T09:38:20.455Z,91.28
2018-01-31T09:40:47.978Z,91.45
2018-01-31T09:43:15.567Z,91.53
2018-01-31T09:45:43.089Z,91.64
2018-01-31T09:48:10.680Z,91.89
2018-01-31T09:50:38.198Z,92.74
2018-01-31T09:53:05.738Z,92.79
2018-01-31T09:55:33.262Z,93.17
2018-01-31T09:58:00.965Z,93.46
2018-01-31T10:00:28.485Z,93.91
2018-01-31T10:02:56.046Z,93.98
2018-01-31T10:05:23.917Z,94.03
2018-01-31T10:07:51.518Z,94.07
2018-01-31T10:10:19.348Z,94.16
2018-01-31T10:12:47.270Z,94.00
2018-01-31T10:15:14.801Z,93.98
2018-01-31T10:17:42.361Z,94.45
2018-01-31T10:20:10.130Z,94.40
2018-01-31T10:22:37.753Z,94.38
2018-01-31T10:25:05.631Z,94.31
2018-01-31T10:27:33.173Z,94.40
2018-01-31T10:30:00.753Z,94.50
2018-01-31T10:32:28.623Z,94.37
2018-01-31T10:34:56.266Z,94.43
2018-01-31T10:37:23.804Z,94.42
2018-01-31T10:39:51.418Z,94.35
2018-01-31T10:42:18.950Z,94.09
2018-01-31T10:44:46.561Z,94.09
2018-01-31T10:47:14.164Z,93.97
2018-01-31T10:49:41.827Z,93.96
2018-01-31T10:52:09.346Z,94.05
2018-01-31T10:57:28.883Z,93.94
2018-01-31T10:59:32.036Z,93.83
2018-01-31T11:01:59.570Z,93.74
2018-01-31T11:04:27.140Z,93.94
2018-01-31T11:06:54.660Z,94.10
2018-01-31T11:09:22.191Z,93.98
2018-01-31T11:11:49.719Z,93.96
2018-01-31T11:14:17.370Z,93.92
2018-01-31T11:16:44.895Z,93.63
2018-01-31T11:19:12.787Z,93.64
2018-01-31T11:21:40.341Z,93.48
2018-01-31T11:24:07.936Z,93.41
2018-01-31T11:26:35.459Z,93.28
2018-01-31T11:29:03.048Z,93.13
2018-01-31T11:31:30.611Z,93.09
2018-01-31T11:33:58.456Z,92.66
2018-01-31T11:36:25.985Z,92.78
2018-01-31T11:38:53.540Z,92.65
2018-01-31T11:41:21.348Z,92.45
2018-01-31T11:43:48.933Z,92.09
2018-01-31T11:46:16.468Z,92.11
2018-01-31T11:48:44.038Z,91.68
2018-01-31T11:51:11.583Z,91.27
2018-01-31T11:53:39.141Z,91.45
2018-01-31T11:56:07.765Z,91.21
2018-01-31T11:58:35.287Z,91.50
2018-01-31T12:01:02.869Z,90.85
2018-01-31T12:03:30.718Z,90.52
2018-01-31T12:05:58.269Z,90.59
2018-01-31T12:08:25.846Z,90.61
2018-01-31T12:10:53.396Z,89.79
2018-01-31T12:13:33.111Z,89.79
2018-01-31T12:16:12.422Z,89.88
2018-01-31T12:18:52.034Z,89.38
2018-01-31T12:21:31.414Z,89.11
2018-01-31T12:24:10.896Z,89.21
2018-01-31T12:26:50.303Z,88.80
2018-01-31T12:29:29.709Z,89.06
2018-01-31T12:32:08.992Z,88.71
2018-01-31T12:34:48.671Z,88.67
2018-01-31T12:37:28.007Z,88.46
2018-01-31T12:39:55.068Z,88.86
2018-01-31T12:42:22.069Z,88.87
2018-01-31T12:44:49.087Z,88.68
2018-01-31T12:47:28.355Z,88.39
2018-01-31T12:50:08.034Z,87.60
2018-01-31T12:52:47.494Z,87.59
2018-01-31T12:55:26.978Z,87.52
2018-01-31T12:58:06.437Z,87.20
2018-01-31T13:00:45.948Z,87.35
2018-01-31T13:03:31.340Z,87.31
2018-01-31T13:06:10.633Z,86.81
2018-01-31T13:08:49.930Z,86.84
2018-01-31T13:11:29.382Z,87.14
2018-01-31T13:14:08.709Z,86.91
2018-01-31T13:16:48.063Z,86.54
2018-01-31T13:19:18.400Z,86.79
2018-01-31T13:21:58.130Z,86.61
2018-01-31T13:24:37.615Z,86.54
2018-01-31T13:27:17.176Z,86.72
2018-01-31T13:33:20.218Z,86.42
2018-01-31T13:35:59.711Z,86.53
2018-01-31T13:38:39.045Z,86.40
2018-01-31T13:41:18.438Z,86.56
2018-01-31T13:43:58.285Z,86.62
2018-01-31T13:46:37.679Z,86.28
2018-01-31T13:49:17.077Z,86.34
2018-01-31T13:51:56.525Z,86.08
2018-01-31T13:54:35.909Z,86.24
2018-01-31T13:57:15.416Z,85.94
2018-01-31T13:59:54.890Z,85.83
2018-01-31T14:02:34.432Z,85.67
2018-01-31T14:05:14.011Z,85.48
2018-01-31T14:07:53.392Z,85.53
2018-01-31T14:10:32.848Z,85.35
2018-01-31T14:13:12.269Z,84.99
2018-01-31T14:15:51.839Z,85.03
2018-01-31T14:18:31.026Z,85.01
2018-01-31T14:21:10.560Z,85.05
2018-01-31T14:23:49.977Z,84.59
2018-01-31T14:26:29.319Z,84.71
2018-01-31T14:29:08.672Z,84.39
2018-01-31T14:31:48.289Z,84.34
2018-01-31T14:34:27.685Z,84.34
2018-01-31T14:36:54.686Z,84.30
2018-01-31T14:39:21.692Z,83.99
2018-01-31T14:41:48.700Z,84.04
2018-01-31T14:44:15.924Z,83.86
2018-01-31T14:46:42.930Z,83.70
2018-01-31T14:49:09.956Z,83.66
2018-01-31T14:51:36.996Z,83.37
2018-01-31T14:54:03.990Z,83.19
2018-01-31T14:56:31.026Z,83.18
2018-01-31T14:58:58.054Z,83.33
2018-01-31T15:01:25.070Z,82.87
2018-01-31T15:03:52.301Z,82.97
2018-01-31T15:06:19.285Z,82.71
2018-01-31T15:08:46.285Z,82.63
2018-01-31T15:11:13.539Z,82.95
2018-01-31T15:13:40.601Z,83.01
2018-01-31T15:16:07.963Z,83.04
2018-01-31T15:18:34.962Z,82.75
2018-01-31T15:21:01.954Z,82.50
2018-01-31T15:23:28.976Z,82.36
2018-01-31T15:25:55.970Z,82.49
2018-01-31T15:28:22.996Z,82.42
2018-01-31T15:30:49.979Z,82.41
2018-01-31T15:33:16.973Z,82.30
2018-01-31T15:35:43.994Z,82.42
2018-01-31T15:38:11.026Z,82.24
2018-01-31T15:40:38.034Z,82.09
2018-01-31T15:43:05.061Z,81.47
2018-01-31T15:45:32.095Z,81.80
2018-01-31T15:47:59.107Z,81.89
2018-01-31T15:50:26.381Z,81.54
2018-01-31T15:52:53.407Z,81.04
2018-01-31T15:55:20.428Z,81.01
2018-01-31T15:57:47.575Z,80.93
2018-01-31T16:00:14.559Z,81.10
2018-01-31T16:02:41.575Z,81.23
2018-01-31T16:05:08.836Z,81.09
2018-01-31T16:07:35.843Z,81.42
2018-01-31T16:10:02.872Z,81.61
2018-01-31T16:12:29.893Z,81.40
2018-01-31T16:14:56.917Z,81.26
2018-01-31T16:17:24.463Z,81.50
2018-01-31T16:20:03.901Z,81.04
2018-01-31T16:22:31.435Z,80.87
2018-01-31T16:24:59.004Z,80.84
2018-01-31T16:27:26.607Z,80.90
2018-01-31T16:30:13.010Z,80.92
2018-01-31T16:32:52.530Z,80.68
2018-01-31T16:35:20.083Z,80.95
2018-01-31T16:37:47.638Z,81.31
2018-01-31T16:40:15.168Z,81.71
2018-01-31T16:42:42.694Z,81.85
2018-01-31T16:45:10.249Z,82.20
2018-01-31T16:47:37.833Z,82.47
2018-01-31T16:50:05.365Z,82.63
2018-01-31T16:52:32.954Z,82.81
2018-01-31T16:55:00.541Z,82.69
2018-01-31T16:57:28.062Z,82.57
2018-01-31T16:59:55.940Z,82.56
2018-01-31T17:02:23.494Z,82.58
2018-01-31T17:04:51.002Z,82.79
2018-01-31T17:07:18.678Z,82.44
2018-01-31T17:09:46.185Z,82.45
2018-01-31T17:12:13.713Z,82.63
2018-01-31T17:14:41.608Z,82.85
2018-01-31T17:17:09.139Z,82.78
2018-01-31T17:19:37.044Z,82.89
2018-01-31T17:22:04.560Z,82.75
2018-01-31T17:24:32.609Z,82.60
2018-01-31T17:27:00.431Z,82.59
2018-01-31T17:29:27.999Z,82.41
2018-01-31T17:31:55.608Z,82.41
2018-01-31T17:34:23.240Z,82.00
2018-01-31T17:36:50.780Z,81.80
2018-01-31T17:39:18.394Z,81.70
2018-01-31T17:41:45.969Z,81.88
2018-01-31T17:44:13.545Z,81.70
2018-01-31T17:46:41.107Z,81.74
2018-01-31T17:49:08.628Z,81.62
2018-01-31T17:51:37.139Z,81.60
2018-01-31T17:54:04.732Z,81.82
2018-01-31T17:56:32.298Z,81.47
2018-01-31T17:58:59.845Z,81.53
2018-01-31T18:01:28.230Z,81.49
2018-01-31T18:03:55.793Z,81.14
2018-01-31T18:06:23.492Z,81.24
2018-01-31T18:08:51.015Z,81.28
2018-01-31T18:11:18.546Z,81.03
2018-01-31T18:13:47.040Z,80.93
2018-01-31T18:16:14.787Z,80.86
2018-01-31T18:18:42.298Z,80.93
2018-01-31T18:21:10.137Z,80.66
2018-01-31T18:23:37.911Z,80.82
2018-01-31T18:26:05.722Z,80.75
2018-01-31T18:28:33.252Z,80.71
2018-01-31T18:31:00.804Z,80.76
2018-01-31T18:33:28.422Z,80.23
2018-01-31T18:35:55.962Z,80.06
2018-01-31T18:38:23.509Z,80.18
2018-01-31T18:40:51.053Z,79.83
2018-01-31T18:43:18.570Z,79.84
2018-01-31T18:45:46.160Z,79.93
2018-01-31T18:48:14.021Z,79.70
2018-01-31T18:50:41.596Z,79.65
2018-01-31T18:53:09.189Z,79.53
2018-01-31T18:55:36.711Z,79.22
2018-01-31T18:58:04.303Z,79.20
2018-01-31T19:00:31.886Z,79.02
2018-01-31T19:02:59.453Z,78.90
2018-01-31T19:05:27.253Z,78.92
2018-01-31T19:07:54.928Z,78.91
2018-01-31T19:10:22.503Z,78.45
2018-01-31T19:12:50.046Z,78.51
2018-01-31T19:15:17.593Z,78.11
2018-01-31T19:17:45.121Z,78.23
2018-01-31T19:20:12.751Z,78.20
2018-01-31T19:22:40.412Z,78.15
2018-01-31T19:25:07.959Z,78.20
2018-01-31T19:27:35.490Z,78.26
2018-01-31T19:30:03.383Z,78.01
2018-01-31T19:32:30.934Z,78.05
2018-01-31T19:34:58.536Z,78.15
2018-01-31T19:37:26.357Z,78.11
2018-01-31T19:39:53.925Z,78.11
2018-01-31T19:42:21.491Z,78.07
2018-01-31T19:44:49.354Z,78.62
2018-01-31T19:47:16.909Z,78.36
2018-01-31T19:49:44.486Z,78.43
2018-01-31T19:52:12.050Z,79.08
2018-01-31T19:54:39.915Z,80.37
2018-01-31T19:57:07.459Z,82.12
2018-01-31T19:59:35.346Z,84.00
2018-01-31T20:02:02.895Z,84.73
2018-01-31T20:04:30.970Z,85.45
2018-01-31T20:06:58.493Z,86.15
2018-01-31T20:09:27.708Z,86.33
2018-01-31T20:11:55.538Z,86.68
2018-01-31T20:14:24.220Z,86.85
2018-01-31T20:16:52.528Z,87.27
2018-01-31T20:19:21.029Z,87.60
2018-01-31T20:21:48.550Z,87.47
2018-01-31T20:24:16.466Z,87.59
2018-01-31T20:26:44.015Z,87.67
2018-01-31T20:29:11.592Z,87.84
2018-01-31T20:31:39.168Z,87.84
2018-01-31T20:34:07.016Z,87.85
2018-01-31T20:36:34.577Z,87.97
2018-01-31T20:39:02.116Z,88.18
2018-01-31T20:41:29.652Z,88.01
2018-01-31T20:43:57.171Z,88.12
2018-01-31T20:46:25.041Z,88.39
2018-01-31T20:48:52.592Z,88.57
2018-01-31T20:51:20.116Z,89.22
2018-01-31T20:53:47.663Z,89.82
2018-01-31T20:56:15.181Z,89.80
2018-01-31T20:58:42.718Z,89.76
2018-01-31T21:01:10.235Z,89.94
2018-01-31T21:03:37.797Z,90.14
2018-01-31T21:06:05.614Z,90.25
2018-01-31T21:08:34.411Z,90.58
2018-01-31T21:11:01.970Z,89.78
2018-01-31T21:13:29.505Z,88.67
2018-01-31T21:15:57.014Z,88.29
2018-01-31T21:18:24.848Z,88.22
2018-01-31T21:20:52.436Z,88.98
2018-01-31T21:23:19.957Z,89.41
2018-01-31T21:25:47.510Z,89.54
2018-01-31T21:28:15.039Z,89.78
2018-01-31T21:30:42.598Z,89.78
2018-01-31T21:33:10.413Z,90.28
2018-01-31T21:35:38.026Z,90.00
2018-01-31T21:38:05.930Z,90.07
2018-01-31T21:40:33.814Z,90.25
2018-01-31T21:43:01.422Z,90.12
2018-01-31T21:45:28.945Z,90.15
2018-01-31T21:47:56.590Z,90.15
2018-01-31T21:50:24.164Z,90.21
2018-01-31T21:52:51.677Z,89.98
2018-01-31T21:55:19.255Z,89.07
2018-01-31T21:57:56.162Z,89.35
2018-01-31T22:00:23.739Z,89.40
2018-01-31T22:02:52.926Z,89.60
2018-01-31T22:05:20.471Z,89.20
2018-01-31T22:07:48.350Z,89.18
2018-01-31T22:10:15.886Z,89.37
2018-01-31T22:12:43.438Z,89.41
2018-01-31T22:17:50.529Z,89.48
2018-01-31T22:20:18.370Z,89.16
2018-01-31T22:22:45.921Z,89.22
2018-01-31T22:25:13.457Z,88.82
2018-01-31T22:27:41.016Z,88.65
2018-01-31T22:30:08.566Z,89.09
2018-01-31T22:32:36.111Z,88.76
2018-01-31T22:35:03.648Z,88.30
2018-01-31T22:37:31.238Z,88.31
2018-01-31T22:39:58.784Z,88.30
2018-01-31T22:42:26.586Z,87.98
2018-01-31T22:44:54.111Z,87.37
2018-01-31T22:47:21.664Z,87.67
2018-01-31T22:49:49.198Z,87.51
2018-01-31T22:52:16.734Z,87.40
2018-01-31T22:54:44.249Z,87.55
2018-01-31T22:57:11.798Z,86.78
2018-01-31T22:59:39.319Z,86.96
2018-01-31T23:02:07.047Z,86.72
2018-01-31T23:04:34.618Z,86.91
2018-01-31T23:07:02.437Z,86.93
2018-01-31T23:09:29.977Z,86.96
2018-01-31T23:11:57.526Z,86.84
2018-01-31T23:14:30.741Z,86.55
2018-01-31T23:16:58.252Z,86.40
2018-01-31T23:19:25.778Z,86.66
2018-01-31T23:21:53.305Z,87.21
2018-01-31T23:24:20.875Z,87.06
2018-01-31T23:26:48.406Z,86.56
2018-01-31T23:29:15.913Z,86.20
2018-01-31T23:31:43.460Z,86.11
2018-01-31T23:34:11.300Z,86.12
2018-01-31T23:36:38.815Z,86.23
2018-01-31T23:39:06.346Z,86.22
2018-01-31T23:41:33.896Z,86.58
2018-01-31T23:44:01.754Z,87.03
2018-01-31T23:46:29.272Z,86.92
2018-01-31T23:48:56.820Z,86.92
2018-01-31T23:51:24.358Z,86.44
2018-01-31T23:53:52.194Z,86.13
2018-01-31T23:56:19.747Z,86.30
2018-01-31T23:58:47.298Z,84.39
